sensor_id;sensor_type;location;lat;lon;timestamp;pressure;altitude;pressure_sealevel;temperature;humidity
72096;BME280;59968;51.084;16.748;2023-12-07T00:02:06;100326.52;;;3.92;74.12
72096;BME280;59968;51.084;16.748;2023-12-07T00:04:35;100326.15;;;3.91;74.16
72096;BME280;59968;51.084;16.748;2023-12-07T00:07:03;100329.45;;;3.88;74.24
72096;BME280;59968;51.084;16.748;2023-12-07T00:09:33;100330.17;;;3.88;74.28
72096;BME280;59968;51.084;16.748;2023-12-07T00:12:02;100331.67;;;3.87;74.17
72096;BME280;59968;51.084;16.748;2023-12-07T00:14:31;100332.08;;;3.83;74.32
72096;BME280;59968;51.084;16.748;2023-12-07T00:17:00;100329.48;;;3.83;74.38
72096;BME280;59968;51.084;16.748;2023-12-07T00:19:29;100336.53;;;3.82;74.38
72096;BME280;59968;51.084;16.748;2023-12-07T00:21:58;100333.84;;;3.82;74.31
72096;BME280;59968;51.084;16.748;2023-12-07T00:24:27;100334.90;;;3.80;74.22
72096;BME280;59968;51.084;16.748;2023-12-07T00:26:56;100337.79;;;3.80;74.20
72096;BME280;59968;51.084;16.748;2023-12-07T00:29:28;100334.22;;;3.82;74.18
72096;BME280;59968;51.084;16.748;2023-12-07T00:31:56;100336.36;;;3.81;74.13
72096;BME280;59968;51.084;16.748;2023-12-07T00:34:28;100335.66;;;3.81;74.08
72096;BME280;59968;51.084;16.748;2023-12-07T00:36:58;100337.83;;;3.80;74.12
72096;BME280;59968;51.084;16.748;2023-12-07T00:39:27;100340.55;;;3.80;74.03
72096;BME280;59968;51.084;16.748;2023-12-07T00:41:56;100346.45;;;3.81;73.99
72096;BME280;59968;51.084;16.748;2023-12-07T00:44:28;100345.45;;;3.77;73.97
72096;BME280;59968;51.084;16.748;2023-12-07T00:46:57;100349.28;;;3.72;74.10
72096;BME280;59968;51.084;16.748;2023-12-07T00:49:29;100350.27;;;3.69;74.25
72096;BME280;59968;51.084;16.748;2023-12-07T00:51:58;100350.82;;;3.67;74.21
72096;BME280;59968;51.084;16.748;2023-12-07T00:54:29;100357.98;;;3.67;74.17
72096;BME280;59968;51.084;16.748;2023-12-07T00:56:58;100354.23;;;3.69;74.11
72096;BME280;59968;51.084;16.748;2023-12-07T00:59:29;100357.54;;;3.70;74.09
72096;BME280;59968;51.084;16.748;2023-12-07T01:02:03;100357.50;;;3.70;74.08
72096;BME280;59968;51.084;16.748;2023-12-07T01:04:51;100359.69;;;3.69;73.98
72096;BME280;59968;51.084;16.748;2023-12-07T01:07:20;100361.17;;;3.70;73.97
72096;BME280;59968;51.084;16.748;2023-12-07T01:09:50;100364.22;;;3.70;73.82
72096;BME280;59968;51.084;16.748;2023-12-07T01:12:19;100364.98;;;3.68;73.91
72096;BME280;59968;51.084;16.748;2023-12-07T01:14:48;100365.84;;;3.65;73.81
72096;BME280;59968;51.084;16.748;2023-12-07T01:17:17;100372.11;;;3.64;73.72
72096;BME280;59968;51.084;16.748;2023-12-07T01:19:46;100375.97;;;3.60;73.89
72096;BME280;59968;51.084;16.748;2023-12-07T01:22:15;100376.20;;;3.57;73.93
72096;BME280;59968;51.084;16.748;2023-12-07T01:24:43;100376.86;;;3.57;74.00
72096;BME280;59968;51.084;16.748;2023-12-07T01:27:12;100370.30;;;3.55;74.01
72096;BME280;59968;51.084;16.748;2023-12-07T01:29:41;100380.48;;;3.59;73.91
72096;BME280;59968;51.084;16.748;2023-12-07T01:32:09;100383.27;;;3.59;73.94
72096;BME280;59968;51.084;16.748;2023-12-07T01:34:38;100386.31;;;3.59;73.90
72096;BME280;59968;51.084;16.748;2023-12-07T01:37:06;100385.45;;;3.57;73.93
72096;BME280;59968;51.084;16.748;2023-12-07T01:39:36;100387.80;;;3.58;73.94
72096;BME280;59968;51.084;16.748;2023-12-07T01:42:04;100391.34;;;3.58;73.92
72096;BME280;59968;51.084;16.748;2023-12-07T01:44:33;100396.83;;;3.56;73.87
72096;BME280;59968;51.084;16.748;2023-12-07T01:47:02;100396.94;;;3.50;74.05
72096;BME280;59968;51.084;16.748;2023-12-07T01:49:31;100400.23;;;3.49;74.15
72096;BME280;59968;51.084;16.748;2023-12-07T01:51:59;100401.08;;;3.49;74.10
72096;BME280;59968;51.084;16.748;2023-12-07T01:54:29;100402.85;;;3.49;74.05
72096;BME280;59968;51.084;16.748;2023-12-07T01:56:58;100402.20;;;3.50;73.93
72096;BME280;59968;51.084;16.748;2023-12-07T01:59:27;100401.73;;;3.49;73.93
72096;BME280;59968;51.084;16.748;2023-12-07T02:01:56;100404.09;;;3.50;73.99
72096;BME280;59968;51.084;16.748;2023-12-07T02:04:25;100404.61;;;3.50;74.13
72096;BME280;59968;51.084;16.748;2023-12-07T02:06:54;100404.11;;;3.52;74.12
72096;BME280;59968;51.084;16.748;2023-12-07T02:09:28;100403.42;;;3.53;74.05
72096;BME280;59968;51.084;16.748;2023-12-07T02:11:56;100405.36;;;3.54;74.01
72096;BME280;59968;51.084;16.748;2023-12-07T02:14:29;100409.48;;;3.56;74.07
72096;BME280;59968;51.084;16.748;2023-12-07T02:17:21;100412.02;;;3.56;74.07
72096;BME280;59968;51.084;16.748;2023-12-07T02:20:20;100412.23;;;3.56;74.10
72096;BME280;59968;51.084;16.748;2023-12-07T02:22:53;100416.71;;;3.57;73.99
72096;BME280;59968;51.084;16.748;2023-12-07T02:25:36;100416.91;;;3.57;73.90
72096;BME280;59968;51.084;16.748;2023-12-07T02:28:06;100416.75;;;3.55;73.91
72096;BME280;59968;51.084;16.748;2023-12-07T02:30:35;100423.34;;;3.56;73.86
72096;BME280;59968;51.084;16.748;2023-12-07T02:33:03;100419.61;;;3.56;73.82
72096;BME280;59968;51.084;16.748;2023-12-07T02:35:35;100423.83;;;3.56;73.90
72096;BME280;59968;51.084;16.748;2023-12-07T02:38:05;100425.29;;;3.55;73.78
72096;BME280;59968;51.084;16.748;2023-12-07T02:40:35;100427.77;;;3.53;73.79
72096;BME280;59968;51.084;16.748;2023-12-07T02:43:04;100429.02;;;3.50;73.58
72096;BME280;59968;51.084;16.748;2023-12-07T02:45:34;100421.62;;;3.43;73.64
72096;BME280;59968;51.084;16.748;2023-12-07T02:48:02;100428.15;;;3.45;73.66
72096;BME280;59968;51.084;16.748;2023-12-07T02:50:31;100430.22;;;3.43;73.80
72096;BME280;59968;51.084;16.748;2023-12-07T02:53:00;100429.30;;;3.43;73.89
72096;BME280;59968;51.084;16.748;2023-12-07T02:55:28;100431.11;;;3.46;73.94
72096;BME280;59968;51.084;16.748;2023-12-07T02:57:57;100430.49;;;3.47;73.89
72096;BME280;59968;51.084;16.748;2023-12-07T03:00:25;100432.20;;;3.49;73.86
72096;BME280;59968;51.084;16.748;2023-12-07T03:02:54;100434.86;;;3.48;73.68
72096;BME280;59968;51.084;16.748;2023-12-07T03:05:23;100430.92;;;3.46;73.75
72096;BME280;59968;51.084;16.748;2023-12-07T03:07:52;100435.27;;;3.45;73.69
72096;BME280;59968;51.084;16.748;2023-12-07T03:10:21;100434.09;;;3.43;73.73
72096;BME280;59968;51.084;16.748;2023-12-07T03:12:49;100435.71;;;3.41;73.81
72096;BME280;59968;51.084;16.748;2023-12-07T03:15:17;100436.10;;;3.40;73.92
72096;BME280;59968;51.084;16.748;2023-12-07T03:17:46;100436.69;;;3.41;73.94
72096;BME280;59968;51.084;16.748;2023-12-07T03:20:15;100437.06;;;3.41;74.05
72096;BME280;59968;51.084;16.748;2023-12-07T03:22:43;100440.10;;;3.41;74.08
72096;BME280;59968;51.084;16.748;2023-12-07T03:25:13;100441.95;;;3.42;74.12
72096;BME280;59968;51.084;16.748;2023-12-07T03:27:41;100442.63;;;3.44;73.89
72096;BME280;59968;51.084;16.748;2023-12-07T03:30:10;100442.74;;;3.40;73.80
72096;BME280;59968;51.084;16.748;2023-12-07T03:32:39;100439.45;;;3.35;73.92
72096;BME280;59968;51.084;16.748;2023-12-07T03:35:07;100452.17;;;3.36;73.98
72096;BME280;59968;51.084;16.748;2023-12-07T03:37:36;100455.88;;;3.33;73.84
72096;BME280;59968;51.084;16.748;2023-12-07T03:40:05;100459.45;;;3.30;74.03
72096;BME280;59968;51.084;16.748;2023-12-07T03:42:34;100463.98;;;3.26;74.09
72096;BME280;59968;51.084;16.748;2023-12-07T03:45:22;100469.34;;;3.22;74.21
72096;BME280;59968;51.084;16.748;2023-12-07T03:47:51;100471.74;;;3.18;74.18
72096;BME280;59968;51.084;16.748;2023-12-07T03:50:20;100470.05;;;3.14;74.43
72096;BME280;59968;51.084;16.748;2023-12-07T03:52:48;100469.58;;;3.14;74.62
72096;BME280;59968;51.084;16.748;2023-12-07T03:55:17;100473.55;;;3.15;74.65
72096;BME280;59968;51.084;16.748;2023-12-07T03:57:46;100474.30;;;3.16;74.80
72096;BME280;59968;51.084;16.748;2023-12-07T04:00:14;100476.30;;;3.19;74.93
72096;BME280;59968;51.084;16.748;2023-12-07T04:02:43;100479.42;;;3.22;75.07
72096;BME280;59968;51.084;16.748;2023-12-07T04:05:11;100480.27;;;3.24;74.92
72096;BME280;59968;51.084;16.748;2023-12-07T04:07:41;100477.91;;;3.24;74.80
72096;BME280;59968;51.084;16.748;2023-12-07T04:10:10;100479.00;;;3.21;74.83
72096;BME280;59968;51.084;16.748;2023-12-07T04:12:39;100479.62;;;3.18;74.98
72096;BME280;59968;51.084;16.748;2023-12-07T04:15:08;100478.63;;;3.16;75.08
72096;BME280;59968;51.084;16.748;2023-12-07T04:17:36;100478.77;;;3.14;75.21
72096;BME280;59968;51.084;16.748;2023-12-07T04:20:06;100474.52;;;3.12;75.40
72096;BME280;59968;51.084;16.748;2023-12-07T04:22:35;100476.47;;;3.09;75.45
72096;BME280;59968;51.084;16.748;2023-12-07T04:25:04;100480.04;;;3.08;75.59
72096;BME280;59968;51.084;16.748;2023-12-07T04:27:33;100477.05;;;3.03;75.72
72096;BME280;59968;51.084;16.748;2023-12-07T04:30:02;100479.56;;;2.98;75.84
72096;BME280;59968;51.084;16.748;2023-12-07T04:32:31;100482.82;;;2.94;76.02
72096;BME280;59968;51.084;16.748;2023-12-07T04:35:00;100478.20;;;2.90;76.25
72096;BME280;59968;51.084;16.748;2023-12-07T04:37:29;100482.46;;;2.91;76.35
72096;BME280;59968;51.084;16.748;2023-12-07T04:39:57;100482.83;;;2.88;76.49
72096;BME280;59968;51.084;16.748;2023-12-07T04:42:27;100486.38;;;2.92;76.72
72096;BME280;59968;51.084;16.748;2023-12-07T04:44:55;100490.69;;;2.98;76.89
72096;BME280;59968;51.084;16.748;2023-12-07T04:47:24;100495.61;;;3.04;76.78
72096;BME280;59968;51.084;16.748;2023-12-07T04:49:53;100498.79;;;3.08;76.80
72096;BME280;59968;51.084;16.748;2023-12-07T04:52:21;100502.08;;;3.12;76.67
72096;BME280;59968;51.084;16.748;2023-12-07T04:54:50;100506.73;;;3.15;76.68
72096;BME280;59968;51.084;16.748;2023-12-07T04:57:18;100506.89;;;3.17;76.68
72096;BME280;59968;51.084;16.748;2023-12-07T04:59:47;100510.60;;;3.18;76.70
72096;BME280;59968;51.084;16.748;2023-12-07T05:02:18;100517.48;;;3.19;76.72
72096;BME280;59968;51.084;16.748;2023-12-07T05:04:46;100515.86;;;3.20;76.78
72096;BME280;59968;51.084;16.748;2023-12-07T05:07:15;100520.38;;;3.21;76.90
72096;BME280;59968;51.084;16.748;2023-12-07T05:09:44;100518.25;;;3.24;76.87
72096;BME280;59968;51.084;16.748;2023-12-07T05:12:12;100516.91;;;3.21;76.91
72096;BME280;59968;51.084;16.748;2023-12-07T05:14:41;100518.60;;;3.21;76.99
72096;BME280;59968;51.084;16.748;2023-12-07T05:17:09;100520.50;;;3.21;77.03
72096;BME280;59968;51.084;16.748;2023-12-07T05:19:38;100524.25;;;3.18;77.01
72096;BME280;59968;51.084;16.748;2023-12-07T05:22:07;100522.16;;;3.10;77.14
72096;BME280;59968;51.084;16.748;2023-12-07T05:24:36;100530.89;;;3.01;77.44
72096;BME280;59968;51.084;16.748;2023-12-07T05:27:04;100534.05;;;2.92;77.85
72096;BME280;59968;51.084;16.748;2023-12-07T05:29:33;100538.81;;;2.89;78.13
72096;BME280;59968;51.084;16.748;2023-12-07T05:32:02;100534.52;;;2.85;78.37
72096;BME280;59968;51.084;16.748;2023-12-07T05:34:30;100539.15;;;2.83;78.41
72096;BME280;59968;51.084;16.748;2023-12-07T05:36:59;100539.20;;;2.80;78.69
72096;BME280;59968;51.084;16.748;2023-12-07T05:39:30;100539.17;;;2.79;78.82
72096;BME280;59968;51.084;16.748;2023-12-07T05:41:58;100542.48;;;2.78;78.89
72096;BME280;59968;51.084;16.748;2023-12-07T05:44:28;100546.94;;;2.78;79.08
72096;BME280;59968;51.084;16.748;2023-12-07T05:46:56;100547.96;;;2.78;79.19
72096;BME280;59968;51.084;16.748;2023-12-07T05:49:28;100551.89;;;2.76;79.24
72096;BME280;59968;51.084;16.748;2023-12-07T05:51:56;100554.95;;;2.74;79.37
72096;BME280;59968;51.084;16.748;2023-12-07T05:54:25;100559.95;;;2.74;79.48
72096;BME280;59968;51.084;16.748;2023-12-07T05:56:54;100560.71;;;2.73;79.57
72096;BME280;59968;51.084;16.748;2023-12-07T05:59:22;100561.11;;;2.72;79.75
72096;BME280;59968;51.084;16.748;2023-12-07T06:01:52;100559.98;;;2.71;79.80
72096;BME280;59968;51.084;16.748;2023-12-07T06:04:21;100562.96;;;2.72;79.99
72096;BME280;59968;51.084;16.748;2023-12-07T06:06:50;100567.48;;;2.71;79.95
72096;BME280;59968;51.084;16.748;2023-12-07T06:09:19;100569.39;;;2.69;80.21
72096;BME280;59968;51.084;16.748;2023-12-07T06:11:48;100574.70;;;2.71;80.04
72096;BME280;59968;51.084;16.748;2023-12-07T06:14:17;100574.83;;;2.69;80.18
72096;BME280;59968;51.084;16.748;2023-12-07T06:16:45;100573.64;;;2.67;80.36
72096;BME280;59968;51.084;16.748;2023-12-07T06:19:14;100579.38;;;2.66;80.37
72096;BME280;59968;51.084;16.748;2023-12-07T06:21:43;100578.80;;;2.65;80.51
72096;BME280;59968;51.084;16.748;2023-12-07T06:24:15;100578.94;;;2.63;80.58
72096;BME280;59968;51.084;16.748;2023-12-07T06:26:43;100583.70;;;2.61;80.64
72096;BME280;59968;51.084;16.748;2023-12-07T06:29:12;100582.54;;;2.61;80.67
72096;BME280;59968;51.084;16.748;2023-12-07T06:31:44;100582.52;;;2.61;80.86
72096;BME280;59968;51.084;16.748;2023-12-07T06:34:13;100588.05;;;2.63;80.94
72096;BME280;59968;51.084;16.748;2023-12-07T06:36:42;100587.77;;;2.64;80.93
72096;BME280;59968;51.084;16.748;2023-12-07T06:39:12;100591.79;;;2.63;80.99
72096;BME280;59968;51.084;16.748;2023-12-07T06:41:41;100596.85;;;2.61;81.04
72096;BME280;59968;51.084;16.748;2023-12-07T06:44:09;100596.90;;;2.61;81.10
72096;BME280;59968;51.084;16.748;2023-12-07T06:46:38;100603.38;;;2.61;81.24
72096;BME280;59968;51.084;16.748;2023-12-07T06:49:07;100599.90;;;2.60;81.32
72096;BME280;59968;51.084;16.748;2023-12-07T06:51:37;100603.95;;;2.62;81.30
72096;BME280;59968;51.084;16.748;2023-12-07T06:54:06;100605.10;;;2.63;81.46
72096;BME280;59968;51.084;16.748;2023-12-07T06:56:34;100609.95;;;2.64;81.41
72096;BME280;59968;51.084;16.748;2023-12-07T06:59:03;100609.20;;;2.62;81.48
72096;BME280;59968;51.084;16.748;2023-12-07T07:01:32;100613.66;;;2.65;81.41
72096;BME280;59968;51.084;16.748;2023-12-07T07:04:01;100612.36;;;2.64;81.48
72096;BME280;59968;51.084;16.748;2023-12-07T07:06:30;100611.32;;;2.64;81.54
72096;BME280;59968;51.084;16.748;2023-12-07T07:08:59;100610.52;;;2.67;81.60
72096;BME280;59968;51.084;16.748;2023-12-07T07:11:28;100611.52;;;2.70;81.55
72096;BME280;59968;51.084;16.748;2023-12-07T07:13:57;100612.26;;;2.71;81.45
72096;BME280;59968;51.084;16.748;2023-12-07T07:16:26;100615.48;;;2.75;81.51
72096;BME280;59968;51.084;16.748;2023-12-07T07:18:55;100616.91;;;2.78;81.35
72096;BME280;59968;51.084;16.748;2023-12-07T07:21:24;100622.46;;;2.79;81.24
72096;BME280;59968;51.084;16.748;2023-12-07T07:23:52;100625.39;;;2.79;81.34
72096;BME280;59968;51.084;16.748;2023-12-07T07:26:21;100626.77;;;2.77;81.17
72096;BME280;59968;51.084;16.748;2023-12-07T07:28:52;100624.92;;;2.73;81.36
72096;BME280;59968;51.084;16.748;2023-12-07T07:31:22;100625.85;;;2.74;81.36
72096;BME280;59968;51.084;16.748;2023-12-07T07:33:51;100627.81;;;2.75;81.41
72096;BME280;59968;51.084;16.748;2023-12-07T07:36:29;100631.84;;;2.76;81.37
72096;BME280;59968;51.084;16.748;2023-12-07T07:38:58;100632.77;;;2.75;81.43
72096;BME280;59968;51.084;16.748;2023-12-07T07:41:27;100629.30;;;2.75;81.46
72096;BME280;59968;51.084;16.748;2023-12-07T07:43:57;100629.73;;;2.84;81.27
72096;BME280;59968;51.084;16.748;2023-12-07T07:46:29;100635.98;;;2.91;81.17
72096;BME280;59968;51.084;16.748;2023-12-07T07:48:59;100643.86;;;2.95;80.87
72096;BME280;59968;51.084;16.748;2023-12-07T07:51:28;100647.50;;;2.97;80.72
72096;BME280;59968;51.084;16.748;2023-12-07T07:53:59;100649.95;;;2.97;80.79
72096;BME280;59968;51.084;16.748;2023-12-07T07:56:28;100650.23;;;2.94;80.76
72096;BME280;59968;51.084;16.748;2023-12-07T07:58:59;100654.02;;;2.93;80.72
72096;BME280;59968;51.084;16.748;2023-12-07T08:01:30;100658.84;;;2.93;80.76
72096;BME280;59968;51.084;16.748;2023-12-07T08:03:59;100654.35;;;2.88;80.75
72096;BME280;59968;51.084;16.748;2023-12-07T08:06:29;100655.63;;;2.83;80.88
72096;BME280;59968;51.084;16.748;2023-12-07T08:09:04;100651.26;;;2.80;80.88
72096;BME280;59968;51.084;16.748;2023-12-07T08:11:33;100649.25;;;2.76;81.03
72096;BME280;59968;51.084;16.748;2023-12-07T08:14:02;100650.23;;;2.76;81.11
72096;BME280;59968;51.084;16.748;2023-12-07T08:16:31;100650.73;;;2.72;81.25
72096;BME280;59968;51.084;16.748;2023-12-07T08:19:01;100651.30;;;2.68;81.54
72096;BME280;59968;51.084;16.748;2023-12-07T08:21:30;100652.56;;;2.67;81.57
72096;BME280;59968;51.084;16.748;2023-12-07T08:24:00;100651.09;;;2.68;81.56
72096;BME280;59968;51.084;16.748;2023-12-07T08:26:30;100656.07;;;2.74;81.44
72096;BME280;59968;51.084;16.748;2023-12-07T08:28:59;100654.27;;;2.77;81.47
72096;BME280;59968;51.084;16.748;2023-12-07T08:31:28;100654.39;;;2.83;81.29
72096;BME280;59968;51.084;16.748;2023-12-07T08:33:58;100653.56;;;2.85;81.21
72096;BME280;59968;51.084;16.748;2023-12-07T08:36:39;100658.59;;;2.90;81.13
72096;BME280;59968;51.084;16.748;2023-12-07T08:39:09;100662.14;;;2.96;81.12
72096;BME280;59968;51.084;16.748;2023-12-07T08:41:38;100665.36;;;3.02;81.10
72096;BME280;59968;51.084;16.748;2023-12-07T08:44:07;100661.20;;;3.07;80.98
72096;BME280;59968;51.084;16.748;2023-12-07T08:46:36;100668.25;;;3.18;80.94
72096;BME280;59968;51.084;16.748;2023-12-07T08:49:05;100664.00;;;3.26;80.44
72096;BME280;59968;51.084;16.748;2023-12-07T08:51:35;100667.81;;;3.29;80.29
72096;BME280;59968;51.084;16.748;2023-12-07T08:54:04;100666.33;;;3.34;80.11
72096;BME280;59968;51.084;16.748;2023-12-07T08:56:34;100662.96;;;3.42;80.16
72096;BME280;59968;51.084;16.748;2023-12-07T08:59:03;100664.05;;;3.50;80.07
72096;BME280;59968;51.084;16.748;2023-12-07T09:01:31;100666.05;;;3.59;79.85
72096;BME280;59968;51.084;16.748;2023-12-07T09:04:01;100671.70;;;3.64;79.31
72096;BME280;59968;51.084;16.748;2023-12-07T09:06:31;100673.66;;;3.63;79.15
72096;BME280;59968;51.084;16.748;2023-12-07T09:09:00;100676.41;;;3.63;79.03
72096;BME280;59968;51.084;16.748;2023-12-07T09:11:28;100679.73;;;3.64;79.06
72096;BME280;59968;51.084;16.748;2023-12-07T09:13:57;100679.25;;;3.68;79.02
72096;BME280;59968;51.084;16.748;2023-12-07T09:16:26;100674.83;;;3.73;79.26
72096;BME280;59968;51.084;16.748;2023-12-07T09:18:55;100675.17;;;3.83;79.28
72096;BME280;59968;51.084;16.748;2023-12-07T09:21:25;100676.77;;;3.93;78.86
72096;BME280;59968;51.084;16.748;2023-12-07T09:23:54;100673.20;;;4.01;78.67
72096;BME280;59968;51.084;16.748;2023-12-07T09:26:23;100671.65;;;4.07;78.55
72096;BME280;59968;51.084;16.748;2023-12-07T09:28:52;100674.60;;;4.16;78.18
72096;BME280;59968;51.084;16.748;2023-12-07T09:31:21;100674.06;;;4.16;77.98
72096;BME280;59968;51.084;16.748;2023-12-07T09:33:51;100676.36;;;4.15;77.72
72096;BME280;59968;51.084;16.748;2023-12-07T09:36:22;100674.29;;;4.13;77.60
72096;BME280;59968;51.084;16.748;2023-12-07T09:38:53;100677.95;;;4.12;77.51
72096;BME280;59968;51.084;16.748;2023-12-07T09:41:23;100678.67;;;4.08;77.19
72096;BME280;59968;51.084;16.748;2023-12-07T09:43:52;100670.02;;;4.02;77.22
72096;BME280;59968;51.084;16.748;2023-12-07T09:46:21;100670.33;;;4.00;77.18
72096;BME280;59968;51.084;16.748;2023-12-07T09:48:51;100658.11;;;3.90;77.37
72096;BME280;59968;51.084;16.748;2023-12-07T09:51:21;100672.83;;;3.99;77.36
72096;BME280;59968;51.084;16.748;2023-12-07T09:53:54;100671.93;;;4.02;77.35
72096;BME280;59968;51.084;16.748;2023-12-07T09:56:24;100671.25;;;4.04;77.31
72096;BME280;59968;51.084;16.748;2023-12-07T09:58:52;100671.11;;;4.07;77.41
72096;BME280;59968;51.084;16.748;2023-12-07T10:01:28;100669.89;;;4.11;77.25
72096;BME280;59968;51.084;16.748;2023-12-07T10:06:48;100669.09;;;4.14;76.92
72096;BME280;59968;51.084;16.748;2023-12-07T10:09:18;100668.91;;;4.14;76.97
72096;BME280;59968;51.084;16.748;2023-12-07T10:12:04;100670.39;;;4.19;76.88
72096;BME280;59968;51.084;16.748;2023-12-07T10:14:34;100671.65;;;4.20;76.91
72096;BME280;59968;51.084;16.748;2023-12-07T10:17:03;100670.78;;;4.20;76.82
72096;BME280;59968;51.084;16.748;2023-12-07T10:19:32;100673.85;;;4.24;76.92
72096;BME280;59968;51.084;16.748;2023-12-07T10:22:13;100671.41;;;4.26;76.74
72096;BME280;59968;51.084;16.748;2023-12-07T10:24:42;100668.65;;;4.28;76.69
72096;BME280;59968;51.084;16.748;2023-12-07T10:27:11;100671.83;;;4.31;76.64
72096;BME280;59968;51.084;16.748;2023-12-07T10:29:40;100673.40;;;4.30;76.54
72096;BME280;59968;51.084;16.748;2023-12-07T10:32:10;100675.47;;;4.34;76.50
72096;BME280;59968;51.084;16.748;2023-12-07T10:34:40;100678.80;;;4.36;76.28
72096;BME280;59968;51.084;16.748;2023-12-07T10:37:08;100677.86;;;4.37;76.48
72096;BME280;59968;51.084;16.748;2023-12-07T10:39:37;100679.20;;;4.45;76.53
72096;BME280;59968;51.084;16.748;2023-12-07T10:42:09;100680.45;;;4.50;76.13
72096;BME280;59968;51.084;16.748;2023-12-07T10:44:42;100676.64;;;4.49;76.05
72096;BME280;59968;51.084;16.748;2023-12-07T10:47:13;100676.45;;;4.51;75.91
72096;BME280;59968;51.084;16.748;2023-12-07T10:49:43;100672.96;;;4.52;76.09
72096;BME280;59968;51.084;16.748;2023-12-07T10:52:17;100673.38;;;4.60;76.30
72096;BME280;59968;51.084;16.748;2023-12-07T10:55:02;100673.33;;;4.72;76.42
72096;BME280;59968;51.084;16.748;2023-12-07T10:57:33;100673.02;;;4.86;76.14
72096;BME280;59968;51.084;16.748;2023-12-07T11:00:10;100673.98;;;4.97;76.19
72096;BME280;59968;51.084;16.748;2023-12-07T11:02:40;100682.34;;;5.10;75.86
72096;BME280;59968;51.084;16.748;2023-12-07T11:05:11;100681.20;;;5.22;75.64
72096;BME280;59968;51.084;16.748;2023-12-07T11:10:25;100678.78;;;5.39;74.94
72096;BME280;59968;51.084;16.748;2023-12-07T11:13:13;100676.17;;;5.41;74.37
72096;BME280;59968;51.084;16.748;2023-12-07T11:15:45;100667.98;;;5.42;74.28
72096;BME280;59968;51.084;16.748;2023-12-07T11:18:15;100667.34;;;5.42;74.10
72096;BME280;59968;51.084;16.748;2023-12-07T11:20:46;100667.20;;;5.41;73.79
72096;BME280;59968;51.084;16.748;2023-12-07T11:23:18;100669.38;;;5.36;73.73
72096;BME280;59968;51.084;16.748;2023-12-07T11:25:48;100666.98;;;5.36;73.80
72096;BME280;59968;51.084;16.748;2023-12-07T11:28:18;100669.77;;;5.36;73.78
72096;BME280;59968;51.084;16.748;2023-12-07T11:31:03;100668.96;;;5.37;73.84
72096;BME280;59968;51.084;16.748;2023-12-07T11:33:32;100668.63;;;5.41;73.65
72096;BME280;59968;51.084;16.748;2023-12-07T11:38:30;100665.81;;;5.40;73.26
72096;BME280;59968;51.084;16.748;2023-12-07T11:41:00;100662.52;;;5.35;73.33
72096;BME280;59968;51.084;16.748;2023-12-07T11:46:10;100665.80;;;5.38;73.54
72096;BME280;59968;51.084;16.748;2023-12-07T11:48:39;100664.19;;;5.46;73.41
72096;BME280;59968;51.084;16.748;2023-12-07T11:51:08;100667.64;;;5.49;73.30
72096;BME280;59968;51.084;16.748;2023-12-07T11:53:37;100667.70;;;5.52;73.43
72096;BME280;59968;51.084;16.748;2023-12-07T11:56:11;100667.15;;;5.57;73.42
72096;BME280;59968;51.084;16.748;2023-12-07T11:58:44;100665.91;;;5.61;73.25
72096;BME280;59968;51.084;16.748;2023-12-07T12:01:13;100659.20;;;5.62;72.83
72096;BME280;59968;51.084;16.748;2023-12-07T12:03:43;100657.59;;;5.59;72.83
72096;BME280;59968;51.084;16.748;2023-12-07T12:06:11;100657.37;;;5.56;72.77
72096;BME280;59968;51.084;16.748;2023-12-07T12:08:41;100653.77;;;5.52;72.79
72096;BME280;59968;51.084;16.748;2023-12-07T12:11:11;100653.85;;;5.50;72.78
72096;BME280;59968;51.084;16.748;2023-12-07T12:13:41;100652.12;;;5.52;72.83
72096;BME280;59968;51.084;16.748;2023-12-07T12:16:10;100649.30;;;5.52;72.67
72096;BME280;59968;51.084;16.748;2023-12-07T12:18:40;100648.59;;;5.53;72.66
72096;BME280;59968;51.084;16.748;2023-12-07T12:21:09;100649.99;;;5.51;72.68
72096;BME280;59968;51.084;16.748;2023-12-07T12:23:39;100649.33;;;5.52;72.64
72096;BME280;59968;51.084;16.748;2023-12-07T12:26:09;100648.80;;;5.54;72.51
72096;BME280;59968;51.084;16.748;2023-12-07T12:28:39;100651.70;;;5.56;72.45
72096;BME280;59968;51.084;16.748;2023-12-07T12:31:12;100647.73;;;5.61;72.56
72096;BME280;59968;51.084;16.748;2023-12-07T12:33:42;100646.17;;;5.66;72.61
72096;BME280;59968;51.084;16.748;2023-12-07T12:36:11;100647.91;;;5.68;72.27
72096;BME280;59968;51.084;16.748;2023-12-07T12:38:40;100645.98;;;5.65;72.08
72096;BME280;59968;51.084;16.748;2023-12-07T12:41:12;100648.57;;;5.65;71.87
72096;BME280;59968;51.084;16.748;2023-12-07T12:43:42;100652.86;;;5.54;71.71
72096;BME280;59968;51.084;16.748;2023-12-07T12:46:15;100657.19;;;5.38;71.63
72096;BME280;59968;51.084;16.748;2023-12-07T12:48:59;100655.66;;;5.20;71.85
72096;BME280;59968;51.084;16.748;2023-12-07T12:51:29;100654.83;;;5.02;72.22
72096;BME280;59968;51.084;16.748;2023-12-07T12:54:00;100658.83;;;4.93;72.62
72096;BME280;59968;51.084;16.748;2023-12-07T12:56:29;100661.30;;;4.85;72.77
72096;BME280;59968;51.084;16.748;2023-12-07T12:58:59;100666.52;;;4.77;72.85
72096;BME280;59968;51.084;16.748;2023-12-07T13:01:34;100667.27;;;4.67;73.00
72096;BME280;59968;51.084;16.748;2023-12-07T13:04:03;100667.66;;;4.59;73.25
72096;BME280;59968;51.084;16.748;2023-12-07T13:06:33;100659.90;;;4.50;73.52
72096;BME280;59968;51.084;16.748;2023-12-07T13:09:02;100655.55;;;4.42;73.64
72096;BME280;59968;51.084;16.748;2023-12-07T13:11:32;100666.95;;;4.44;73.83
72096;BME280;59968;51.084;16.748;2023-12-07T13:14:02;100666.25;;;4.43;74.01
72096;BME280;59968;51.084;16.748;2023-12-07T13:16:37;100664.66;;;4.43;74.09